createdAt,value
2022-12-14T00:02:26.605Z,50.10
2022-12-14T00:04:55.249Z,43.90
2022-12-14T00:07:23.879Z,34.87
2022-12-14T00:09:52.492Z,46.03
2022-12-14T00:12:21.111Z,44.27
2022-12-14T00:14:49.736Z,43.07
2022-12-14T00:17:19.973Z,41.97
2022-12-14T00:19:48.906Z,43.30
2022-12-14T00:22:17.704Z,42.53
2022-12-14T00:24:46.309Z,44.90
2022-12-14T00:27:14.983Z,37.90
2022-12-14T00:29:43.554Z,49.77
2022-12-14T00:32:12.130Z,49.87
2022-12-14T00:34:42.051Z,34.20
2022-12-14T00:37:10.699Z,46.27
2022-12-14T00:39:39.322Z,48.47
2022-12-14T00:42:08.319Z,42.30
2022-12-14T00:44:37.000Z,46.30
2022-12-14T00:47:05.639Z,45.20
2022-12-14T00:49:34.228Z,37.83
2022-12-14T00:52:04.308Z,52.70
2022-12-14T00:54:32.965Z,41.10
2022-12-14T00:57:01.643Z,45.13
2022-12-14T00:59:30.209Z,57.80
2022-12-14T01:01:58.944Z,38.80
2022-12-14T01:04:28.156Z,44.40
2022-12-14T01:06:57.336Z,48.67
2022-12-14T01:09:28.420Z,41.40
2022-12-14T01:11:57.071Z,42.97
2022-12-14T01:14:25.728Z,43.60
2022-12-14T01:16:54.316Z,41.60
2022-12-14T01:19:22.923Z,37.40
2022-12-14T01:21:53.402Z,44.53
2022-12-14T01:24:22.061Z,40.23
2022-12-14T01:26:52.073Z,42.80
2022-12-14T01:29:20.706Z,48.23
2022-12-14T01:31:49.485Z,40.77
2022-12-14T01:34:18.185Z,43.33
2022-12-14T01:36:47.061Z,46.10
2022-12-14T01:39:17.049Z,37.33
2022-12-14T01:41:49.438Z,48.30
2022-12-14T01:44:55.385Z,39.67
2022-12-14T01:47:28.995Z,35.40
2022-12-14T01:50:02.807Z,42.33
2022-12-14T01:52:36.201Z,36.77
2022-12-14T01:55:07.779Z,41.00
2022-12-14T01:57:40.587Z,42.53
2022-12-14T02:00:14.285Z,43.67
2022-12-14T02:02:46.526Z,44.27
2022-12-14T02:05:17.369Z,37.70
2022-12-14T02:07:48.794Z,40.07
2022-12-14T02:10:18.745Z,50.47
2022-12-14T02:12:52.124Z,38.80
2022-12-14T02:15:22.452Z,38.23
2022-12-14T02:17:51.218Z,47.30
2022-12-14T02:20:21.230Z,39.40
2022-12-14T02:23:22.744Z,49.20
2022-12-14T02:26:18.112Z,45.20
2022-12-14T02:29:34.897Z,53.03
2022-12-14T02:32:15.364Z,49.17
2022-12-14T02:34:56.002Z,41.10
2022-12-14T02:37:30.403Z,46.60
2022-12-14T02:40:09.642Z,51.53
2022-12-14T02:42:52.945Z,37.03
2022-12-14T02:45:33.069Z,42.70
2022-12-14T02:48:05.217Z,38.00
2022-12-14T02:50:41.433Z,44.23
2022-12-14T02:53:16.732Z,38.83
2022-12-14T02:55:49.949Z,38.50
2022-12-14T02:58:23.452Z,46.80
2022-12-14T03:00:54.469Z,35.23
2022-12-14T03:03:23.532Z,38.20
2022-12-14T03:05:59.700Z,40.90
2022-12-14T03:08:30.656Z,33.90
2022-12-14T03:11:02.363Z,36.30
2022-12-14T03:13:34.066Z,33.80
2022-12-14T03:16:10.587Z,33.57
2022-12-14T03:18:43.845Z,33.30
2022-12-14T03:21:16.682Z,42.80
2022-12-14T03:23:50.694Z,41.83
2022-12-14T03:26:24.182Z,42.33
2022-12-14T03:28:55.666Z,41.43
2022-12-14T03:31:32.696Z,31.03
2022-12-14T03:34:03.858Z,42.00
2022-12-14T03:36:38.482Z,31.77
2022-12-14T03:39:10.492Z,41.27
2022-12-14T03:41:51.305Z,37.90
2022-12-14T03:44:30.869Z,28.63
2022-12-14T03:47:13.967Z,32.93
2022-12-14T03:49:56.139Z,32.60
2022-12-14T03:52:32.498Z,28.27
2022-12-14T03:55:10.520Z,33.87
2022-12-14T03:57:50.776Z,30.40
2022-12-14T04:00:23.428Z,28.57
2022-12-14T04:03:00.759Z,30.53
2022-12-14T04:05:35.808Z,32.60
2022-12-14T04:08:11.616Z,27.93
2022-12-14T04:11:01.752Z,28.33
2022-12-14T04:14:02.259Z,25.43
2022-12-14T04:16:51.749Z,31.40
2022-12-14T04:19:25.592Z,33.90
2022-12-14T04:22:00.185Z,31.17
2022-12-14T04:24:51.414Z,24.67
2022-12-14T04:27:24.059Z,35.70
2022-12-14T04:29:57.134Z,32.30
2022-12-14T04:32:32.182Z,24.67
2022-12-14T04:35:07.320Z,38.83
2022-12-14T04:37:39.307Z,39.70
2022-12-14T04:40:11.707Z,32.10
2022-12-14T04:42:46.768Z,31.77
2022-12-14T04:45:21.262Z,26.07
2022-12-14T04:47:57.753Z,33.97
2022-12-14T04:50:32.506Z,31.53
2022-12-14T04:53:06.500Z,29.33
2022-12-14T04:55:39.443Z,28.17
2022-12-14T04:58:13.779Z,27.57
2022-12-14T05:00:55.120Z,29.17
2022-12-14T05:03:29.257Z,31.63
2022-12-14T05:06:11.900Z,31.97
2022-12-14T05:09:07.171Z,36.70
2022-12-14T05:11:57.224Z,34.87
2022-12-14T05:14:36.371Z,31.80
2022-12-14T05:17:09.225Z,33.60
2022-12-14T05:19:38.866Z,33.03
2022-12-14T05:22:09.870Z,31.53
2022-12-14T05:24:38.507Z,39.40
2022-12-14T05:27:07.387Z,26.13
2022-12-14T05:29:36.413Z,29.70
2022-12-14T05:32:05.336Z,27.10
2022-12-14T05:34:34.187Z,28.77
2022-12-14T05:37:02.860Z,30.93
2022-12-14T05:39:32.853Z,38.43
2022-12-14T05:42:02.103Z,33.40
2022-12-14T05:44:30.728Z,49.87
2022-12-14T05:46:59.498Z,32.20
2022-12-14T05:49:28.104Z,28.33
2022-12-14T05:51:56.719Z,41.13
2022-12-14T05:54:25.348Z,32.60
2022-12-14T05:56:55.423Z,31.00
2022-12-14T05:59:24.058Z,36.07
2022-12-14T06:01:53.019Z,34.47
2022-12-14T06:04:21.779Z,32.53
2022-12-14T06:06:50.994Z,29.47
2022-12-14T06:09:20.002Z,31.13
2022-12-14T06:11:50.023Z,44.20
2022-12-14T06:14:20.242Z,36.87
2022-12-14T06:16:49.088Z,25.27
2022-12-14T06:19:17.979Z,27.50
2022-12-14T06:21:46.621Z,29.03
2022-12-14T06:24:15.565Z,25.00
2022-12-14T06:26:44.266Z,29.83
2022-12-14T06:29:17.803Z,31.47
2022-12-14T06:31:49.350Z,30.17
2022-12-14T06:34:21.261Z,36.80
2022-12-14T06:36:53.506Z,32.00
2022-12-14T06:39:22.066Z,23.90
2022-12-14T06:41:51.745Z,30.43
2022-12-14T06:44:20.675Z,24.90
2022-12-14T06:46:50.733Z,25.27
2022-12-14T06:49:19.425Z,22.80
2022-12-14T06:51:48.019Z,27.37
2022-12-14T06:54:17.846Z,28.43
2022-12-14T06:56:48.273Z,25.93
2022-12-14T06:59:17.655Z,23.80
2022-12-14T07:01:49.969Z,30.90
2022-12-14T07:04:21.841Z,27.17
2022-12-14T07:06:50.523Z,28.17
2022-12-14T07:09:19.476Z,27.43
2022-12-14T07:11:50.538Z,28.37
2022-12-14T07:14:19.182Z,25.90
2022-12-14T07:16:48.877Z,25.33
2022-12-14T07:19:19.940Z,25.83
2022-12-14T07:21:49.013Z,28.33
2022-12-14T07:24:17.881Z,23.10
2022-12-14T07:26:46.684Z,25.07
2022-12-14T07:29:16.832Z,24.03
2022-12-14T07:31:49.348Z,26.83
2022-12-14T07:34:19.978Z,30.07
2022-12-14T07:36:51.934Z,24.67
2022-12-14T07:39:21.468Z,30.03
2022-12-14T07:41:52.128Z,29.10
2022-12-14T07:44:20.687Z,37.23
2022-12-14T07:46:49.218Z,32.70
2022-12-14T07:49:17.882Z,29.43
2022-12-14T07:51:48.017Z,18.17
2022-12-14T07:54:16.601Z,23.73
2022-12-14T07:56:45.705Z,33.33
2022-12-14T07:59:16.397Z,22.23
2022-12-14T08:01:45.504Z,20.33
2022-12-14T08:04:15.966Z,31.47
2022-12-14T08:06:47.010Z,29.87
2022-12-14T08:09:17.814Z,27.57
2022-12-14T08:11:46.859Z,24.27
2022-12-14T08:14:19.095Z,21.63
2022-12-14T08:16:48.982Z,18.57
2022-12-14T08:19:18.041Z,25.37
2022-12-14T08:21:46.986Z,23.30
2022-12-14T08:24:17.968Z,26.67
2022-12-14T08:26:49.056Z,24.77
2022-12-14T08:29:19.867Z,32.20
2022-12-14T08:31:51.214Z,23.70
2022-12-14T08:34:23.172Z,31.03
2022-12-14T08:36:57.178Z,24.50
2022-12-14T08:39:28.009Z,25.40
2022-12-14T08:41:57.098Z,14.80
2022-12-14T08:44:30.085Z,23.73
2022-12-14T08:47:01.332Z,25.97
2022-12-14T08:49:32.385Z,19.40
2022-12-14T08:52:01.552Z,19.37
2022-12-14T08:54:31.857Z,29.40
2022-12-14T08:57:01.226Z,25.13
2022-12-14T08:59:59.716Z,29.27
2022-12-14T09:02:18.805Z,24.13
2022-12-14T09:04:47.817Z,21.80
2022-12-14T09:07:17.160Z,17.97
2022-12-14T09:09:47.580Z,23.17
2022-12-14T09:12:16.228Z,24.63
2022-12-14T09:14:46.716Z,30.83
2022-12-14T09:17:18.231Z,23.07
2022-12-14T09:19:47.144Z,27.20
2022-12-14T09:22:20.676Z,21.43
2022-12-14T09:24:52.252Z,28.23
2022-12-14T09:27:22.470Z,54.57
2022-12-14T09:29:52.302Z,37.67
2022-12-14T09:32:21.183Z,21.50
2022-12-14T09:34:50.565Z,21.50
2022-12-14T09:37:19.290Z,25.13
2022-12-14T09:39:48.108Z,21.83
2022-12-14T09:42:38.076Z,22.70
2022-12-14T09:45:17.332Z,26.17
2022-12-14T09:47:54.611Z,22.70
2022-12-14T09:50:25.393Z,30.20
2022-12-14T09:52:55.826Z,28.83
2022-12-14T09:55:28.066Z,38.37
2022-12-14T09:58:05.175Z,21.50
2022-12-14T10:00:38.897Z,28.53
2022-12-14T10:03:50.623Z,26.30
2022-12-14T10:06:33.005Z,29.70
2022-12-14T10:09:12.323Z,24.10
2022-12-14T10:11:48.412Z,19.80
2022-12-14T10:14:25.423Z,25.13
2022-12-14T10:17:02.144Z,26.07
2022-12-14T10:19:41.861Z,26.87
2022-12-14T10:22:15.459Z,27.80
2022-12-14T10:24:47.848Z,23.67
2022-12-14T10:27:23.105Z,25.50
2022-12-14T10:30:00.473Z,31.23
2022-12-14T10:32:34.876Z,42.70
2022-12-14T10:35:14.293Z,28.10
2022-12-14T10:37:49.503Z,25.50
2022-12-14T10:40:32.893Z,28.17
2022-12-14T10:43:20.926Z,27.30
2022-12-14T10:45:57.883Z,32.67
2022-12-14T10:48:53.427Z,32.90
2022-12-14T10:51:29.069Z,19.00
2022-12-14T10:54:02.156Z,25.20
2022-12-14T10:56:33.580Z,30.30
2022-12-14T10:59:27.040Z,24.70
2022-12-14T11:02:05.208Z,32.77
2022-12-14T11:04:37.695Z,28.43
2022-12-14T11:07:09.248Z,27.20
2022-12-14T11:09:39.674Z,25.67
2022-12-14T11:12:16.923Z,34.50
2022-12-14T11:14:59.283Z,34.50
2022-12-14T11:17:35.688Z,40.90
2022-12-14T11:20:22.183Z,32.53
2022-12-14T11:22:54.701Z,37.93
2022-12-14T11:25:56.372Z,33.97
2022-12-14T11:28:36.410Z,37.30
2022-12-14T11:31:09.215Z,30.10
2022-12-14T11:33:42.325Z,31.50
2022-12-14T11:36:23.049Z,29.53
2022-12-14T11:38:57.368Z,38.23
2022-12-14T11:41:28.453Z,36.77
2022-12-14T11:44:05.800Z,30.17
2022-12-14T11:46:45.811Z,29.57
2022-12-14T11:49:28.101Z,33.43
2022-12-14T11:52:01.952Z,40.40
2022-12-14T11:54:31.349Z,41.10
2022-12-14T11:57:04.107Z,31.50
2022-12-14T11:59:39.332Z,31.37
2022-12-14T12:02:23.128Z,31.47
2022-12-14T12:04:56.878Z,38.37
2022-12-14T12:07:33.527Z,31.27
2022-12-14T12:10:06.520Z,40.70
2022-12-14T12:12:35.574Z,35.47
2022-12-14T12:15:05.405Z,23.80
2022-12-14T12:17:44.355Z,34.07
2022-12-14T12:20:29.315Z,39.23
2022-12-14T12:23:05.688Z,19.07
2022-12-14T12:25:37.739Z,35.87
2022-12-14T12:28:15.751Z,38.50
2022-12-14T12:30:50.649Z,38.70
2022-12-14T12:33:29.085Z,34.60
2022-12-14T12:36:03.716Z,27.43
2022-12-14T12:38:49.913Z,16.43
2022-12-14T12:41:34.291Z,40.97
2022-12-14T12:44:13.217Z,32.63
2022-12-14T12:47:15.272Z,35.70
2022-12-14T12:49:39.002Z,27.97
2022-12-14T12:52:17.393Z,32.43
2022-12-14T12:54:55.024Z,30.77
2022-12-14T12:57:25.268Z,32.80
2022-12-14T12:59:56.883Z,30.13
2022-12-14T13:02:32.682Z,33.77
2022-12-14T13:05:22.268Z,33.90
2022-12-14T13:07:58.132Z,36.57
2022-12-14T13:10:30.284Z,27.63
2022-12-14T13:13:03.737Z,37.13
2022-12-14T13:15:36.850Z,41.53
2022-12-14T13:18:33.814Z,33.90
2022-12-14T13:21:12.521Z,32.63
2022-12-14T13:23:45.173Z,37.40
2022-12-14T13:26:56.639Z,38.13
2022-12-14T13:29:30.636Z,35.67
2022-12-14T13:32:06.469Z,34.97
2022-12-14T13:34:50.700Z,35.07
2022-12-14T13:37:46.411Z,35.30
2022-12-14T13:40:35.740Z,38.00
2022-12-14T13:43:17.070Z,41.27
2022-12-14T13:45:49.673Z,37.10
2022-12-14T13:48:24.460Z,80.77
2022-12-14T13:51:01.992Z,53.40
2022-12-14T13:53:35.556Z,30.50
2022-12-14T13:56:06.092Z,61.03
2022-12-14T13:58:40.232Z,42.50
2022-12-14T14:01:13.884Z,58.57
2022-12-14T14:03:48.043Z,28.33
2022-12-14T14:06:23.568Z,59.43
2022-12-14T14:08:52.955Z,13.90
2022-12-14T14:11:54.597Z,41.67
2022-12-14T14:14:44.284Z,46.63
2022-12-14T14:17:19.937Z,74.33
2022-12-14T14:19:50.371Z,42.57
2022-12-14T14:22:24.201Z,31.90
2022-12-14T14:24:59.343Z,41.63
2022-12-14T14:27:36.101Z,31.97
2022-12-14T14:30:21.376Z,40.63
2022-12-14T14:32:53.918Z,38.77
2022-12-14T14:35:28.486Z,41.70
2022-12-14T14:37:59.882Z,37.53
2022-12-14T14:41:06.523Z,45.70
2022-12-14T14:43:30.304Z,38.20
2022-12-14T14:46:02.514Z,44.00
2022-12-14T14:48:35.602Z,45.33
2022-12-14T14:51:08.970Z,40.13
2022-12-14T14:53:39.278Z,34.00
2022-12-14T14:56:46.356Z,106.03
2022-12-14T14:59:50.712Z,89.97
2022-12-14T15:02:32.072Z,50.43
2022-12-14T15:07:51.623Z,48.53
2022-12-14T15:10:29.795Z,50.47
2022-12-14T15:13:03.783Z,51.40
2022-12-14T15:15:38.285Z,54.50
2022-12-14T15:18:17.834Z,52.40
2022-12-14T15:20:55.678Z,44.23
2022-12-14T15:23:25.189Z,48.17
2022-12-14T15:26:02.340Z,52.47
2022-12-14T15:28:32.095Z,46.33
2022-12-14T15:31:02.466Z,47.13
2022-12-14T15:33:34.865Z,45.37
2022-12-14T15:36:09.355Z,48.93
2022-12-14T15:38:38.665Z,42.80
2022-12-14T15:41:15.139Z,43.60
2022-12-14T15:43:45.826Z,48.70
2022-12-14T15:46:18.953Z,52.43
2022-12-14T15:48:47.717Z,46.87
2022-12-14T15:51:19.288Z,45.80
2022-12-14T15:53:50.026Z,51.50
2022-12-14T15:56:24.864Z,52.33
2022-12-14T15:58:54.713Z,56.37
2022-12-14T16:01:28.294Z,50.90
2022-12-14T16:04:00.329Z,48.13
2022-12-14T16:06:32.062Z,57.83
2022-12-14T16:09:04.842Z,52.27
2022-12-14T16:11:38.463Z,59.90
2022-12-14T16:14:18.555Z,47.67
2022-12-14T16:16:48.999Z,53.53
2022-12-14T16:19:27.742Z,54.80
2022-12-14T16:22:21.079Z,63.63
2022-12-14T16:25:19.044Z,49.43
2022-12-14T16:27:50.084Z,57.00
2022-12-14T16:30:29.872Z,49.07
2022-12-14T16:33:19.244Z,58.70
2022-12-14T16:35:58.797Z,53.27
2022-12-14T16:38:27.401Z,55.27
2022-12-14T16:41:00.505Z,50.23
2022-12-14T16:43:33.256Z,55.53
2022-12-14T16:46:14.541Z,53.20
2022-12-14T16:48:50.047Z,73.57
2022-12-14T16:52:04.957Z,59.50
2022-12-14T16:54:29.233Z,53.27
2022-12-14T16:57:01.522Z,59.33
2022-12-14T16:59:37.981Z,67.60
2022-12-14T17:02:10.400Z,51.83
2022-12-14T17:04:44.448Z,61.20
2022-12-14T17:07:16.181Z,58.73
2022-12-14T17:09:44.821Z,50.53
2022-12-14T17:12:16.246Z,57.03
2022-12-14T17:14:49.791Z,63.10
2022-12-14T17:17:22.061Z,49.30
2022-12-14T17:19:52.246Z,58.50
2022-12-14T17:22:25.843Z,90.90
2022-12-14T17:24:54.801Z,100.67
2022-12-14T17:27:26.674Z,103.27
2022-12-14T17:29:57.070Z,105.33
2022-12-14T17:32:31.321Z,82.67
2022-12-14T17:35:01.496Z,57.80
2022-12-14T17:37:35.912Z,63.33
2022-12-14T17:40:07.555Z,58.17
2022-12-14T17:42:38.651Z,52.93
2022-12-14T17:45:11.249Z,48.50
2022-12-14T17:47:39.880Z,52.47
2022-12-14T17:50:13.996Z,58.30
2022-12-14T17:52:42.900Z,49.33
2022-12-14T17:55:18.625Z,61.30
2022-12-14T17:57:47.595Z,56.17
2022-12-14T18:00:35.936Z,49.00
2022-12-14T18:03:06.020Z,55.00
2022-12-14T18:05:36.384Z,58.90
2022-12-14T18:08:05.389Z,57.03
2022-12-14T18:10:34.155Z,62.43
2022-12-14T18:13:03.052Z,54.37
2022-12-14T18:15:36.773Z,59.30
2022-12-14T18:18:06.065Z,61.60
2022-12-14T18:20:36.805Z,61.43
2022-12-14T18:23:05.740Z,67.10
2022-12-14T18:25:36.478Z,58.43
2022-12-14T18:28:07.145Z,61.23
2022-12-14T18:30:41.720Z,57.40
2022-12-14T18:33:16.661Z,60.37
2022-12-14T18:35:47.946Z,64.97
2022-12-14T18:38:16.666Z,60.97
2022-12-14T18:40:49.755Z,70.33
2022-12-14T18:43:20.536Z,54.87
2022-12-14T18:45:53.605Z,58.00
2022-12-14T18:48:22.550Z,56.53
2022-12-14T18:50:54.456Z,68.93
2022-12-14T18:53:29.712Z,66.30
2022-12-14T18:55:58.680Z,54.87
2022-12-14T18:58:29.787Z,61.57
2022-12-14T19:01:00.457Z,55.27
2022-12-14T19:03:32.435Z,57.70
2022-12-14T19:06:42.160Z,60.70
2022-12-14T19:08:57.050Z,57.17
2022-12-14T19:11:32.701Z,61.30
2022-12-14T19:14:02.045Z,52.23
2022-12-14T19:16:30.742Z,68.50
2022-12-14T19:18:59.666Z,48.50
2022-12-14T19:21:31.300Z,67.23
2022-12-14T19:24:00.292Z,61.23
2022-12-14T19:26:29.600Z,57.53
2022-12-14T19:28:58.526Z,61.80
2022-12-14T19:31:27.348Z,54.40
2022-12-14T19:33:56.027Z,62.23
2022-12-14T19:36:25.603Z,66.40
2022-12-14T19:38:55.587Z,64.83
2022-12-14T19:41:24.258Z,55.23
2022-12-14T19:43:52.890Z,67.70
2022-12-14T19:46:23.819Z,57.20
2022-12-14T19:48:52.833Z,48.90
2022-12-14T19:51:21.624Z,60.60
2022-12-14T19:53:50.261Z,46.00
2022-12-14T19:56:20.645Z,50.30
2022-12-14T19:58:49.304Z,46.70
2022-12-14T20:01:18.972Z,52.00
2022-12-14T20:03:49.094Z,56.57
2022-12-14T20:06:17.862Z,59.67
2022-12-14T20:08:49.389Z,56.40
2022-12-14T20:11:22.371Z,55.67
2022-12-14T20:13:56.697Z,51.57
2022-12-14T20:16:27.361Z,55.63
2022-12-14T20:18:56.377Z,56.40
2022-12-14T20:21:29.254Z,69.00
2022-12-14T20:23:59.871Z,61.83
2022-12-14T20:26:31.271Z,68.10
2022-12-14T20:29:04.989Z,49.77
2022-12-14T20:31:33.835Z,61.30
2022-12-14T20:34:03.389Z,57.43
2022-12-14T20:36:33.946Z,42.33
2022-12-14T20:39:03.581Z,50.50
2022-12-14T20:41:34.769Z,38.47
2022-12-14T20:44:04.022Z,52.80
2022-12-14T20:46:34.379Z,57.73
2022-12-14T20:49:05.472Z,50.40
2022-12-14T20:51:35.544Z,56.10
2022-12-14T20:54:07.437Z,41.50
2022-12-14T20:56:37.791Z,51.70
2022-12-14T20:59:07.145Z,44.20
2022-12-14T21:01:37.435Z,41.47
2022-12-14T21:04:06.802Z,65.33
2022-12-14T21:06:39.195Z,54.40
2022-12-14T21:09:11.693Z,59.73
2022-12-14T21:12:01.172Z,52.43
2022-12-14T21:14:32.356Z,51.47
2022-12-14T21:17:01.553Z,46.60
2022-12-14T21:19:30.516Z,55.93
2022-12-14T21:21:59.264Z,50.63
2022-12-14T21:25:00.928Z,52.37
2022-12-14T21:27:19.836Z,44.60
2022-12-14T21:29:49.001Z,48.33
2022-12-14T21:32:18.422Z,61.87
2022-12-14T21:34:47.967Z,50.90
2022-12-14T21:37:16.969Z,55.57
2022-12-14T21:39:52.278Z,57.43
2022-12-14T21:42:24.946Z,60.27
2022-12-14T21:44:55.191Z,44.13
2022-12-14T21:47:26.578Z,48.23
2022-12-14T21:49:55.250Z,55.20
2022-12-14T21:52:26.084Z,54.13
2022-12-14T21:54:54.810Z,54.83
2022-12-14T21:57:49.993Z,49.60
2022-12-14T22:00:19.615Z,53.87
2022-12-14T22:02:48.390Z,66.07
2022-12-14T22:05:17.397Z,42.97
2022-12-14T22:07:48.809Z,55.60
2022-12-14T22:10:22.872Z,51.27
2022-12-14T22:12:54.691Z,51.00
2022-12-14T22:15:23.288Z,49.30
2022-12-14T22:17:52.627Z,45.77
2022-12-14T22:20:21.272Z,51.10
2022-12-14T22:22:49.881Z,49.97
2022-12-14T22:25:18.643Z,46.07
2022-12-14T22:27:50.175Z,56.83
2022-12-14T22:30:21.113Z,53.47
2022-12-14T22:32:49.687Z,49.40
2022-12-14T22:35:18.400Z,67.13
2022-12-14T22:37:47.395Z,59.10
2022-12-14T22:40:16.633Z,60.67
2022-12-14T22:42:45.301Z,62.37
2022-12-14T22:45:13.948Z,66.83
2022-12-14T22:47:44.258Z,53.20
2022-12-14T22:50:12.971Z,46.80
2022-12-14T22:52:41.717Z,53.30
2022-12-14T22:55:11.335Z,66.47
2022-12-14T22:57:43.944Z,46.47
2022-12-14T23:00:16.988Z,69.47
2022-12-14T23:02:48.984Z,56.17
2022-12-14T23:05:19.207Z,55.77
2022-12-14T23:07:48.135Z,62.10
2022-12-14T23:10:34.224Z,63.07
2022-12-14T23:13:20.280Z,45.90
2022-12-14T23:16:06.440Z,59.63
2022-12-14T23:18:53.860Z,43.53
2022-12-14T23:21:39.765Z,54.60
2022-12-14T23:24:26.759Z,50.17
2022-12-14T23:27:12.634Z,55.93
2022-12-14T23:29:58.576Z,51.70
2022-12-14T23:32:45.276Z,59.37
2022-12-14T23:35:32.753Z,55.23
2022-12-14T23:38:23.621Z,66.10
2022-12-14T23:40:51.492Z,60.50
2022-12-14T23:43:37.616Z,53.60
2022-12-14T23:46:24.501Z,55.23
2022-12-14T23:49:15.368Z,46.53
2022-12-14T23:52:03.583Z,42.23
2022-12-14T23:54:49.804Z,42.33
2022-12-14T23:57:36.437Z,52.53
